createdAt,value
2022-08-28T00:01:00.126Z,17.30
2022-08-28T00:03:27.363Z,17.30
2022-08-28T00:05:57.548Z,17.30
2022-08-28T00:08:24.899Z,17.30
2022-08-28T00:10:52.542Z,17.30
2022-08-28T00:13:22.095Z,17.30
2022-08-28T00:15:53.154Z,17.30
2022-08-28T00:18:21.059Z,17.30
2022-08-28T00:20:49.485Z,17.30
2022-08-28T00:23:17.051Z,17.30
2022-08-28T00:25:44.368Z,17.30
2022-08-28T00:28:23.434Z,17.30
2022-08-28T00:30:53.533Z,17.30
2022-08-28T00:33:33.173Z,17.30
2022-08-28T00:36:01.287Z,17.30
2022-08-28T00:38:29.526Z,17.30
2022-08-28T00:41:00.895Z,17.30
2022-08-28T00:43:36.599Z,17.20
2022-08-28T00:46:06.335Z,17.20
2022-08-28T00:48:33.365Z,17.20
2022-08-28T00:51:21.386Z,17.20
2022-08-28T00:53:49.045Z,17.20
2022-08-28T00:56:18.548Z,17.20
2022-08-28T00:58:47.845Z,17.20
2022-08-28T01:01:15.886Z,17.20
2022-08-28T01:03:43.568Z,17.20
2022-08-28T01:06:13.401Z,17.20
2022-08-28T01:08:41.315Z,17.20
2022-08-28T01:11:09.970Z,17.20
2022-08-28T01:13:40.532Z,17.20
2022-08-28T01:16:08.993Z,17.20
2022-08-28T01:18:36.105Z,17.20
2022-08-28T01:21:20.773Z,17.10
2022-08-28T01:24:16.199Z,17.20
2022-08-28T01:26:44.652Z,17.10
2022-08-28T01:29:12.412Z,17.10
2022-08-28T01:31:41.144Z,17.10
2022-08-28T01:34:10.252Z,17.10
2022-08-28T01:36:37.334Z,17.10
2022-08-28T01:39:18.076Z,17.10
2022-08-28T01:41:47.611Z,17.10
2022-08-28T01:44:18.180Z,17.10
2022-08-28T01:46:46.580Z,17.00
2022-08-28T01:49:13.896Z,17.00
2022-08-28T01:51:41.809Z,17.00
2022-08-28T01:54:10.283Z,17.00
2022-08-28T01:56:40.683Z,17.00
2022-08-28T01:59:09.906Z,17.00
2022-08-28T02:01:38.120Z,17.00
2022-08-28T02:04:05.938Z,17.00
2022-08-28T02:06:33.992Z,17.00
2022-08-28T02:09:01.068Z,16.90
2022-08-28T02:11:29.936Z,16.90
2022-08-28T02:13:57.007Z,16.90
2022-08-28T02:16:25.563Z,16.90
2022-08-28T02:18:53.838Z,16.90
2022-08-28T02:21:21.512Z,16.90
2022-08-28T02:23:48.644Z,16.90
2022-08-28T02:26:15.756Z,16.90
2022-08-28T02:28:43.499Z,16.90
2022-08-28T02:31:11.467Z,16.90
2022-08-28T02:33:40.239Z,16.90
2022-08-28T02:36:12.408Z,16.90
2022-08-28T02:38:39.666Z,16.90
2022-08-28T02:41:07.258Z,16.80
2022-08-28T02:43:35.042Z,16.80
2022-08-28T02:46:02.972Z,16.90
2022-08-28T02:48:31.994Z,16.80
2022-08-28T02:51:05.190Z,16.80
2022-08-28T02:53:32.791Z,16.70
2022-08-28T02:56:00.953Z,16.80
2022-08-28T02:58:28.097Z,16.70
2022-08-28T03:00:55.640Z,16.70
2022-08-28T03:03:22.673Z,16.70
2022-08-28T03:05:49.938Z,16.70
2022-08-28T03:08:18.134Z,16.70
2022-08-28T03:10:45.136Z,16.70
2022-08-28T03:13:26.545Z,16.70
2022-08-28T03:15:55.938Z,16.60
2022-08-28T03:18:25.392Z,16.60
2022-08-28T03:20:53.441Z,16.60
2022-08-28T03:23:28.796Z,16.60
2022-08-28T03:26:05.097Z,16.50
2022-08-28T03:28:35.458Z,16.50
2022-08-28T03:31:02.785Z,16.50
2022-08-28T03:33:29.754Z,16.50
2022-08-28T03:35:56.972Z,16.50
2022-08-28T03:38:25.328Z,16.40
2022-08-28T03:40:53.531Z,16.40
2022-08-28T03:43:23.517Z,16.40
2022-08-28T03:46:02.470Z,16.40
2022-08-28T03:48:33.266Z,16.30
2022-08-28T03:51:00.926Z,16.40
2022-08-28T03:53:29.749Z,16.30
2022-08-28T03:55:58.168Z,16.30
2022-08-28T03:58:26.145Z,16.30
2022-08-28T04:00:53.255Z,16.30
2022-08-28T04:03:20.344Z,16.40
2022-08-28T04:05:47.985Z,16.40
2022-08-28T04:08:17.074Z,16.40
2022-08-28T04:10:44.989Z,16.40
2022-08-28T04:13:13.923Z,16.40
2022-08-28T04:15:41.701Z,16.40
2022-08-28T04:18:10.087Z,16.50
2022-08-28T04:20:37.359Z,16.50
2022-08-28T04:23:07.907Z,16.50
2022-08-28T04:25:34.917Z,16.50
2022-08-28T04:28:02.036Z,16.50
2022-08-28T04:30:29.052Z,16.50
2022-08-28T04:32:56.095Z,16.50
2022-08-28T04:35:23.100Z,16.50
2022-08-28T04:37:50.262Z,16.50
2022-08-28T04:40:17.475Z,16.50
2022-08-28T04:42:45.239Z,16.40
2022-08-28T04:45:12.274Z,16.40
2022-08-28T04:47:39.569Z,16.40
2022-08-28T04:50:07.890Z,16.40
2022-08-28T04:52:35.055Z,16.40
2022-08-28T04:55:02.206Z,16.40
2022-08-28T04:57:31.251Z,16.40
2022-08-28T05:00:01.949Z,16.30
2022-08-28T05:02:29.504Z,16.30
2022-08-28T05:04:56.578Z,16.30
2022-08-28T05:07:23.541Z,16.30
2022-08-28T05:09:54.430Z,16.30
2022-08-28T05:12:22.242Z,16.30
2022-08-28T05:14:49.716Z,16.30
2022-08-28T05:17:16.695Z,16.30
2022-08-28T05:19:43.982Z,16.30
2022-08-28T05:22:11.158Z,16.30
2022-08-28T05:24:40.086Z,16.30
2022-08-28T05:27:07.763Z,16.30
2022-08-28T05:29:34.819Z,16.30
2022-08-28T05:32:01.969Z,16.30
2022-08-28T05:34:29.160Z,16.30
2022-08-28T05:36:56.223Z,16.30
2022-08-28T05:39:23.308Z,16.30
2022-08-28T05:41:50.364Z,16.40
2022-08-28T05:44:18.327Z,16.30
2022-08-28T05:46:48.170Z,16.40
2022-08-28T05:49:15.918Z,16.40
2022-08-28T05:51:43.375Z,16.40
2022-08-28T05:54:11.166Z,16.40
2022-08-28T05:56:40.587Z,16.40
2022-08-28T05:59:08.253Z,16.30
2022-08-28T06:01:39.777Z,16.40
2022-08-28T06:04:23.853Z,16.50
2022-08-28T06:06:51.462Z,16.50
2022-08-28T06:09:28.953Z,16.50
2022-08-28T06:11:58.960Z,16.50
2022-08-28T06:14:27.013Z,16.60
2022-08-28T06:16:55.954Z,16.60
2022-08-28T06:19:25.640Z,16.60
2022-08-28T06:21:57.250Z,16.60
2022-08-28T06:24:25.439Z,16.70
2022-08-28T06:26:52.706Z,16.70
2022-08-28T06:29:23.934Z,16.80
2022-08-28T06:31:58.652Z,16.80
2022-08-28T06:34:26.568Z,16.90
2022-08-28T06:36:54.382Z,16.90
2022-08-28T06:39:22.820Z,16.90
2022-08-28T06:41:50.134Z,17.00
2022-08-28T06:44:20.211Z,17.00
2022-08-28T06:46:49.563Z,17.10
2022-08-28T06:49:16.987Z,17.10
2022-08-28T06:51:43.985Z,17.10
2022-08-28T06:54:12.137Z,17.10
2022-08-28T06:56:39.281Z,17.20
2022-08-28T06:59:06.517Z,17.20
2022-08-28T07:01:36.195Z,17.20
2022-08-28T07:04:09.657Z,17.30
2022-08-28T07:06:39.705Z,17.40
2022-08-28T07:09:09.185Z,17.40
2022-08-28T07:11:37.106Z,17.50
2022-08-28T07:14:05.836Z,17.60
2022-08-28T07:16:38.330Z,17.60
2022-08-28T07:19:08.106Z,17.70
2022-08-28T07:21:39.926Z,17.80
2022-08-28T07:24:08.567Z,17.80
2022-08-28T07:26:36.478Z,17.90
2022-08-28T07:29:10.934Z,18.00
2022-08-28T07:31:44.528Z,18.00
2022-08-28T07:34:13.620Z,18.00
2022-08-28T07:36:41.022Z,18.10
2022-08-28T07:39:09.205Z,18.20
2022-08-28T07:41:39.327Z,18.20
2022-08-28T07:44:26.066Z,18.20
2022-08-28T07:46:57.837Z,18.30
2022-08-28T07:49:25.777Z,18.40
2022-08-28T07:51:54.376Z,18.50
2022-08-28T07:54:22.439Z,18.50
2022-08-28T07:56:50.203Z,18.60
2022-08-28T07:59:19.454Z,18.70
2022-08-28T08:01:48.737Z,18.70
2022-08-28T08:04:16.800Z,18.70
2022-08-28T08:06:44.837Z,18.70
2022-08-28T08:09:15.267Z,18.80
2022-08-28T08:11:42.787Z,18.80
2022-08-28T08:14:10.773Z,18.80
2022-08-28T08:16:44.163Z,18.80
2022-08-28T08:19:15.463Z,18.80
2022-08-28T08:21:48.422Z,18.80
2022-08-28T08:24:26.076Z,18.90
2022-08-28T08:27:00.311Z,18.90
2022-08-28T08:29:35.958Z,19.00
2022-08-28T08:32:08.859Z,19.00
2022-08-28T08:34:42.329Z,19.00
2022-08-28T08:37:10.529Z,19.00
2022-08-28T08:39:37.890Z,19.10
2022-08-28T08:42:10.441Z,19.20
2022-08-28T08:44:41.698Z,19.30
2022-08-28T08:47:13.261Z,19.30
2022-08-28T08:49:48.850Z,19.40
2022-08-28T08:52:41.886Z,19.60
2022-08-28T08:55:23.418Z,19.60
2022-08-28T08:58:18.521Z,19.70
2022-08-28T09:01:23.492Z,19.70
2022-08-28T09:04:15.855Z,19.80
2022-08-28T09:07:02.596Z,19.70
2022-08-28T09:09:35.740Z,19.80
2022-08-28T09:12:07.541Z,19.80
2022-08-28T09:14:49.698Z,19.80
2022-08-28T09:17:19.643Z,19.90
2022-08-28T09:19:46.805Z,20.00
2022-08-28T09:22:14.561Z,20.00
2022-08-28T09:24:42.285Z,20.00
2022-08-28T09:27:31.968Z,20.10
2022-08-28T09:30:07.332Z,20.20
2022-08-28T09:32:44.739Z,20.10
2022-08-28T09:35:33.107Z,20.10
2022-08-28T09:38:22.376Z,20.20
2022-08-28T09:41:29.618Z,20.30
2022-08-28T09:43:57.330Z,20.60
2022-08-28T09:46:32.148Z,20.80
2022-08-28T09:49:12.138Z,21.00
2022-08-28T09:51:40.033Z,21.20
2022-08-28T09:54:15.721Z,21.30
2022-08-28T09:56:44.982Z,21.40
2022-08-28T09:59:18.240Z,21.40
2022-08-28T10:02:00.653Z,21.50
2022-08-28T10:04:54.970Z,21.60
2022-08-28T10:07:32.425Z,21.50
2022-08-28T10:10:27.411Z,21.40
2022-08-28T10:13:10.861Z,21.20
2022-08-28T10:16:04.981Z,21.00
2022-08-28T10:19:05.482Z,20.90
2022-08-28T10:21:51.014Z,20.90
2022-08-28T10:24:26.502Z,20.90
2022-08-28T10:27:21.140Z,20.90
2022-08-28T10:30:04.249Z,21.00
2022-08-28T10:32:54.668Z,21.10
2022-08-28T10:36:01.053Z,21.30
2022-08-28T10:39:05.991Z,21.70
2022-08-28T10:41:58.316Z,22.30
2022-08-28T10:44:36.513Z,22.80
2022-08-28T10:47:05.722Z,23.00
2022-08-28T10:49:37.851Z,23.10
2022-08-28T10:52:23.826Z,23.10
2022-08-28T10:55:04.607Z,23.10
2022-08-28T10:57:50.541Z,23.30
2022-08-28T11:00:20.749Z,23.10
2022-08-28T11:02:53.280Z,22.90
2022-08-28T11:05:27.662Z,22.80
2022-08-28T11:08:02.260Z,22.90
2022-08-28T11:10:32.311Z,23.00
2022-08-28T11:12:59.786Z,23.10
2022-08-28T11:15:36.848Z,23.20
2022-08-28T11:18:16.826Z,23.10
2022-08-28T11:21:03.479Z,23.10
2022-08-28T11:24:01.156Z,23.10
2022-08-28T11:26:56.746Z,23.10
2022-08-28T11:30:01.596Z,23.10
2022-08-28T11:32:51.690Z,23.10
2022-08-28T11:35:30.765Z,23.10
2022-08-28T11:37:58.509Z,23.10
2022-08-28T11:40:28.633Z,22.90
2022-08-28T11:43:15.890Z,22.90
2022-08-28T11:45:46.677Z,23.10
2022-08-28T11:48:23.432Z,23.20
2022-08-28T11:51:07.108Z,23.20
2022-08-28T11:53:51.740Z,23.20
2022-08-28T11:56:34.051Z,23.30
2022-08-28T11:59:25.524Z,23.40
2022-08-28T12:02:39.355Z,23.70
2022-08-28T12:05:32.611Z,24.10
2022-08-28T12:08:02.647Z,24.30
2022-08-28T12:10:34.210Z,24.60
2022-08-28T12:13:02.182Z,25.00
2022-08-28T12:15:29.680Z,25.40
2022-08-28T12:18:04.936Z,25.60
2022-08-28T12:20:40.308Z,25.60
2022-08-28T12:23:37.831Z,25.20
2022-08-28T12:26:07.401Z,24.80
2022-08-28T12:28:58.047Z,24.40
2022-08-28T12:31:52.673Z,24.30
2022-08-28T12:34:31.760Z,24.30
2022-08-28T12:37:00.645Z,24.70
2022-08-28T12:39:30.232Z,25.10
2022-08-28T12:41:58.846Z,25.50
2022-08-28T12:44:29.720Z,25.80
2022-08-28T12:46:58.231Z,26.10
2022-08-28T12:49:37.512Z,26.40
2022-08-28T12:52:20.840Z,26.40
2022-08-28T12:54:50.385Z,26.00
2022-08-28T12:57:20.672Z,25.60
2022-08-28T12:59:53.504Z,25.10
2022-08-28T13:02:28.927Z,24.80
2022-08-28T13:05:03.883Z,24.50
2022-08-28T13:07:34.759Z,24.40
2022-08-28T13:10:18.763Z,24.20
2022-08-28T13:12:56.042Z,24.10
2022-08-28T13:15:49.664Z,24.00
2022-08-28T13:18:38.551Z,24.00
2022-08-28T13:21:51.982Z,24.10
2022-08-28T13:24:22.128Z,24.30
2022-08-28T13:27:09.593Z,24.40
2022-08-28T13:29:37.888Z,24.40
2022-08-28T13:32:08.749Z,24.40
2022-08-28T13:34:37.933Z,24.30
2022-08-28T13:37:15.024Z,24.20
2022-08-28T13:39:47.778Z,24.20
2022-08-28T13:42:17.025Z,24.30
2022-08-28T13:44:50.640Z,24.60
2022-08-28T13:47:17.676Z,24.90
2022-08-28T13:49:44.706Z,25.20
2022-08-28T13:52:12.655Z,25.50
2022-08-28T13:54:43.516Z,25.70
2022-08-28T13:57:13.775Z,25.60
2022-08-28T13:59:41.300Z,25.60
2022-08-28T14:02:30.405Z,25.60
2022-08-28T14:04:57.574Z,25.70
2022-08-28T14:07:24.749Z,25.80
2022-08-28T14:09:55.995Z,25.60
2022-08-28T14:12:23.194Z,25.30
2022-08-28T14:15:00.679Z,24.80
2022-08-28T14:17:27.714Z,24.60
2022-08-28T14:19:54.852Z,24.40
2022-08-28T14:22:21.817Z,24.50
2022-08-28T14:24:48.999Z,24.60
2022-08-28T14:27:15.952Z,24.70
2022-08-28T14:29:43.006Z,24.80
2022-08-28T14:32:10.157Z,25.00
2022-08-28T14:34:38.379Z,25.20
2022-08-28T14:37:06.437Z,25.40
2022-08-28T14:39:33.770Z,25.60
2022-08-28T14:42:02.068Z,25.70
2022-08-28T14:44:29.212Z,25.70
2022-08-28T14:46:57.173Z,25.70
2022-08-28T14:49:25.598Z,25.70
2022-08-28T14:51:54.223Z,25.50
2022-08-28T14:54:23.545Z,25.30
2022-08-28T14:56:51.990Z,25.20
2022-08-28T14:59:24.466Z,25.10
2022-08-28T15:01:53.228Z,25.00
2022-08-28T15:04:22.899Z,25.00
2022-08-28T15:06:55.246Z,25.00
2022-08-28T15:09:22.253Z,25.10
2022-08-28T15:11:49.306Z,25.30
2022-08-28T15:14:16.470Z,25.30
2022-08-28T15:16:46.023Z,25.30
2022-08-28T15:19:16.035Z,25.30
2022-08-28T15:21:49.538Z,25.20
2022-08-28T15:24:19.318Z,25.00
2022-08-28T15:26:46.966Z,25.00
2022-08-28T15:29:14.431Z,24.90
2022-08-28T15:31:45.825Z,24.80
2022-08-28T15:34:16.088Z,24.80
2022-08-28T15:36:43.932Z,24.70
2022-08-28T15:39:30.251Z,24.70
2022-08-28T15:41:58.291Z,24.70
2022-08-28T15:44:25.457Z,24.70
2022-08-28T15:46:55.835Z,24.60
2022-08-28T15:49:24.145Z,24.50
2022-08-28T15:51:52.208Z,24.40
2022-08-28T15:54:20.233Z,24.30
2022-08-28T15:56:48.084Z,24.40
2022-08-28T15:59:18.287Z,24.20
2022-08-28T16:01:46.107Z,24.10
2022-08-28T16:04:13.803Z,24.00
2022-08-28T16:06:41.891Z,23.90
2022-08-28T16:09:10.143Z,23.70
2022-08-28T16:11:38.798Z,23.70
2022-08-28T16:14:07.549Z,23.60
2022-08-28T16:16:35.004Z,23.60
2022-08-28T16:19:02.095Z,23.50
2022-08-28T16:21:29.241Z,23.50
2022-08-28T16:23:56.375Z,23.40
2022-08-28T16:26:24.119Z,23.40
2022-08-28T16:28:51.223Z,23.30
2022-08-28T16:31:19.693Z,23.20
2022-08-28T16:33:48.905Z,23.20
2022-08-28T16:36:18.653Z,23.30
2022-08-28T16:38:49.646Z,23.10
2022-08-28T16:41:28.293Z,23.00
2022-08-28T16:43:57.939Z,22.90
2022-08-28T16:46:26.562Z,22.80
2022-08-28T16:48:54.346Z,22.70
2022-08-28T16:51:22.920Z,22.80
2022-08-28T16:53:49.951Z,22.70
2022-08-28T16:56:18.328Z,22.60
2022-08-28T16:58:45.919Z,22.60
2022-08-28T17:01:14.122Z,22.60
2022-08-28T17:03:42.577Z,22.50
2022-08-28T17:06:25.315Z,22.50
2022-08-28T17:08:56.650Z,22.50
2022-08-28T17:11:26.181Z,22.40
2022-08-28T17:13:53.706Z,22.30
2022-08-28T17:16:22.373Z,22.30
2022-08-28T17:18:52.169Z,22.30
2022-08-28T17:21:39.202Z,22.30
2022-08-28T17:24:06.928Z,22.20
2022-08-28T17:26:34.321Z,22.20
2022-08-28T17:29:01.445Z,22.20
2022-08-28T17:31:28.534Z,22.20
2022-08-28T17:33:55.724Z,22.20
2022-08-28T17:36:33.207Z,22.10
2022-08-28T17:39:07.420Z,22.00
2022-08-28T17:41:35.219Z,22.00
2022-08-28T17:44:02.790Z,22.00
2022-08-28T17:46:32.922Z,21.90
2022-08-28T17:49:04.911Z,21.90
2022-08-28T17:51:41.865Z,21.80
2022-08-28T17:54:15.781Z,21.70
2022-08-28T17:56:42.869Z,21.60
2022-08-28T17:59:11.782Z,21.60
2022-08-28T18:01:39.897Z,21.50
2022-08-28T18:04:06.981Z,21.40
2022-08-28T18:06:33.995Z,21.30
2022-08-28T18:09:01.209Z,21.30
2022-08-28T18:11:28.914Z,21.20
2022-08-28T18:13:56.063Z,21.10
2022-08-28T18:16:26.460Z,21.00
2022-08-28T18:18:57.076Z,20.90
2022-08-28T18:21:24.577Z,20.80
2022-08-28T18:23:51.606Z,20.70
2022-08-28T18:26:18.695Z,20.60
2022-08-28T18:28:46.331Z,20.50
2022-08-28T18:31:13.956Z,20.50
2022-08-28T18:33:41.009Z,20.40
2022-08-28T18:36:09.795Z,20.30
2022-08-28T18:38:37.156Z,20.20
2022-08-28T18:41:06.818Z,20.10
2022-08-28T18:43:34.394Z,20.10
2022-08-28T18:46:03.076Z,20.00
2022-08-28T18:48:31.669Z,20.00
2022-08-28T18:50:58.639Z,19.90
2022-08-28T18:53:26.505Z,19.80
2022-08-28T18:55:55.141Z,19.70
2022-08-28T18:58:23.307Z,19.70
2022-08-28T19:00:51.163Z,19.60
2022-08-28T19:03:18.175Z,19.50
2022-08-28T19:05:45.159Z,19.40
2022-08-28T19:08:12.514Z,19.30
2022-08-28T19:10:40.214Z,19.30
2022-08-28T19:13:08.083Z,19.20
2022-08-28T19:15:36.533Z,19.10
2022-08-28T19:18:05.283Z,19.10
2022-08-28T19:20:33.335Z,19.00
2022-08-28T19:23:00.532Z,19.00
2022-08-28T19:25:29.645Z,19.00
2022-08-28T19:28:01.819Z,18.90
2022-08-28T19:30:33.210Z,18.80
2022-08-28T19:33:02.631Z,18.80
2022-08-28T19:35:30.092Z,18.80
2022-08-28T19:37:57.142Z,18.70
2022-08-28T19:40:24.223Z,18.60
2022-08-28T19:42:51.356Z,18.60
2022-08-28T19:45:19.040Z,18.50
2022-08-28T19:47:47.215Z,18.50
2022-08-28T19:50:15.039Z,18.40
2022-08-28T19:52:43.498Z,18.40
2022-08-28T19:55:18.814Z,18.40
2022-08-28T19:57:46.896Z,18.40
2022-08-28T20:00:17.739Z,18.30
2022-08-28T20:02:45.311Z,18.30
2022-08-28T20:05:12.400Z,18.30
2022-08-28T20:07:39.728Z,18.30
2022-08-28T20:10:07.851Z,18.20
2022-08-28T20:12:34.955Z,18.20
2022-08-28T20:15:03.597Z,18.20
2022-08-28T20:17:31.856Z,18.20
2022-08-28T20:20:03.042Z,18.10
2022-08-28T20:22:32.060Z,18.10
2022-08-28T20:25:00.258Z,18.10
2022-08-28T20:27:27.306Z,18.00
2022-08-28T20:29:54.352Z,18.00
2022-08-28T20:32:21.343Z,17.90
2022-08-28T20:34:48.390Z,17.90
2022-08-28T20:37:16.856Z,17.90
2022-08-28T20:39:43.957Z,17.90
2022-08-28T20:42:11.899Z,17.90
2022-08-28T20:44:38.923Z,17.90
2022-08-28T20:47:06.118Z,17.80
2022-08-28T20:49:33.182Z,17.80
2022-08-28T20:52:06.901Z,17.80
2022-08-28T20:54:38.855Z,17.80
2022-08-28T20:57:09.484Z,17.70
2022-08-28T20:59:39.975Z,17.70
2022-08-28T21:02:23.483Z,17.70
2022-08-28T21:04:51.997Z,17.60
2022-08-28T21:07:22.210Z,17.60
2022-08-28T21:10:05.679Z,17.60
2022-08-28T21:12:33.932Z,17.60
2022-08-28T21:15:01.090Z,17.60
2022-08-28T21:17:29.464Z,17.50
2022-08-28T21:20:10.747Z,17.50
2022-08-28T21:22:39.438Z,17.40
2022-08-28T21:25:08.984Z,17.40
2022-08-28T21:27:36.773Z,17.30
2022-08-28T21:30:05.769Z,17.20
2022-08-28T21:32:34.188Z,17.20
2022-08-28T21:35:02.417Z,17.20
2022-08-28T21:37:29.550Z,17.20
2022-08-28T21:39:59.269Z,17.20
2022-08-28T21:42:26.865Z,17.10
2022-08-28T21:44:54.723Z,17.10
2022-08-28T21:47:23.431Z,17.10
2022-08-28T21:49:52.364Z,17.10
2022-08-28T21:52:21.063Z,17.10
2022-08-28T21:54:48.574Z,17.10
2022-08-28T21:57:17.679Z,17.00
2022-08-28T21:59:44.709Z,17.00
2022-08-28T22:02:11.837Z,17.00
2022-08-28T22:04:39.179Z,16.90
2022-08-28T22:07:07.042Z,16.90
2022-08-28T22:09:34.581Z,16.80
2022-08-28T22:12:01.656Z,16.80
2022-08-28T22:14:28.724Z,16.80
2022-08-28T22:16:56.735Z,16.80
2022-08-28T22:19:23.787Z,16.70
2022-08-28T22:22:09.236Z,16.70
2022-08-28T22:24:38.298Z,16.70
2022-08-28T22:27:05.894Z,16.70
2022-08-28T22:29:36.648Z,16.70
2022-08-28T22:32:08.086Z,16.60
2022-08-28T22:34:40.748Z,16.60
2022-08-28T22:37:09.704Z,16.60
2022-08-28T22:39:36.684Z,16.60
2022-08-28T22:42:03.770Z,16.50
2022-08-28T22:44:31.264Z,16.50
2022-08-28T22:46:58.832Z,16.40
2022-08-28T22:49:26.197Z,16.40
2022-08-28T22:51:53.262Z,16.40
2022-08-28T22:54:20.342Z,16.30
2022-08-28T22:56:47.585Z,16.30
2022-08-28T22:59:14.759Z,16.20
2022-08-28T23:01:43.297Z,16.20
2022-08-28T23:04:11.235Z,16.10
2022-08-28T23:06:40.328Z,16.10
2022-08-28T23:09:08.614Z,16.10
2022-08-28T23:11:36.863Z,16.10
2022-08-28T23:14:05.685Z,16.10
2022-08-28T23:16:35.091Z,16.10
2022-08-28T23:19:13.117Z,16.00
2022-08-28T23:21:44.228Z,16.00
2022-08-28T23:24:14.079Z,16.00
2022-08-28T23:26:41.441Z,16.00
2022-08-28T23:29:09.828Z,15.90
2022-08-28T23:31:38.006Z,15.90
2022-08-28T23:34:05.722Z,15.90
2022-08-28T23:36:35.277Z,15.80
2022-08-28T23:39:03.526Z,15.80
2022-08-28T23:41:31.294Z,15.70
2022-08-28T23:43:58.275Z,15.70
2022-08-28T23:46:25.398Z,15.60
2022-08-28T23:48:52.945Z,15.60
2022-08-28T23:51:21.758Z,15.60
2022-08-28T23:53:49.594Z,15.60
2022-08-28T23:56:17.125Z,15.60
2022-08-28T23:58:45.169Z,15.60
